Terminal Aerodrome Forecast
Issued by NWS Kansas City/Pleasant Hill, MO

Home | Current Version | Previous Version | Text Only | Print | Product List | Glossary On
Versions: 1 2 3 4 5 6 7 8 9 10 11 12
000
FTUS43 KEAX 031731
TAFMCI
TAF
KMCI 031731Z 0318/0418 10009KT P6SM OVC060
     FM040100 12006KT P6SM VCSH OVC040
     FM040500 16006KT 2SM -SHRA BR SCT006 OVC012
     FM041100 21006KT P6SM OVC006
     FM041700 26007KT P6SM FEW040=

USA.gov is the U.S. government's official web portal to all federal, state and local government web resources and services.